x

South Brooks (46132) Wave Buoy

1:00 - Tue 30th May 2017 All times are PDT. -7 hours from GMT.

  • Sig Wave height 3.6ft
  • Peak Period 18s
  • Wind
    13mph, 18mph gusts
  • Sea Temp 51°f
  • Aire Temp 50°f
  • Sea Pressure 1014.9mb
  • South Brooks
  • South Brooks

More Historic Weather Station data

Upgrade to MSW Pro to gain access to the past 30 days of data for over 8000 Wavebouys and Weather Stations around the globe.

Join Pro

Comparision Forecast

View Surf forecast
   
mar 05/30 1:00 3.5ft 18s 13 18 mph 1014.9mb 51f 50f
12:00 3.5ft 10s 13 18 mph 1015.3mb 50f 50f
lun 05/29 11:00 3.5ft 10s 13 16 mph 1015.3mb 50f 50f
10:00 3.5ft 10s 16 18 mph 1015.2mb 51f 50f
9:00 3.5ft 18s 16 18 mph 1015.1mb 51f 50f
8:00 3.5ft 11s 18 20 mph 1015mb 51f 50f
7:00 3.5ft 10s 18 22 mph 1015.5mb 52f 50f
6:00 2.5ft 13s 16 20 mph 1016mb 52f 51f
5:00 2.5ft 18s 13 18 mph 1016.7mb 53f 51f
4:00 2.5ft 10s 13 18 mph 1017.4mb 54f 51f
2:00 2.5ft 11s 13 16 mph 1018.7mb 53f 51f
1:00 2.5ft 18s 13 16 mph 1018.7mb 52f 50f
12:00 2.5ft 15s 11 13 mph 1018.9mb 51f 50f
11:00 2.5ft 14s 11 13 mph 1018.8mb 51f 50f
10:00 2.5ft 13s 11 16 mph 1019.1mb 51f 50f
9:00 2.5ft 14s 11 13 mph 1019.1mb 51f 49f
8:00 2.5ft 13s 13 18 mph 1019.2mb 51f 49f
7:00 2.5ft 10s 11 16 mph 1019.1mb 50f 49f
6:00 2.5ft 10s 13 16 mph 1019.3mb 50f 49f
5:00 3ft 9s 13 18 mph 1019.2mb 50f 50f
4:00 3ft 14s 13 16 mph 1019.3mb 50f 50f
3:00 3ft 9s 13 18 mph 1019.1mb 50f 49f
2:00 3ft 10s 13 18 mph 1018.9mb 50f 50f
1:00 3.5ft 10s 13 18 mph 1018.9mb 50f 50f
12:00 3ft 14s 18 20 mph 1019mb 50f 50f
dom 05/28 11:00 3ft 10s 13 18 mph 1019.3mb 50f 50f
10:00 3ft 10s 13 18 mph 1019.4mb 50f 50f
9:00 3ft 10s 13 16 mph 1019.4mb 50f 51f
8:00 3ft 10s 9 11 mph 1019.6mb 50f 51f
7:00 3ft 10s 9 13 mph 1019.9mb 50f 51f
6:00 3ft 10s 9 13 mph 1020.3mb 52f 51f
5:00 3.5ft 10s 7 9 mph 1021.1mb 52f 51f
4:00 3.5ft 10s 4 7 mph 1021.4mb 52f 51f
3:00 3ft 10s 4 7 mph 1021.3mb 52f 51f
2:00 3ft 10s 4 9 mph 1021.6mb 51f 51f
1:00 3.5ft 10s 7 9 mph 1021.7mb 52f 51f
12:00 3.5ft 15s 7 9 mph 1021.5mb 51f 51f
11:00 3.5ft 10s 11 13 mph 1021.4mb 51f 51f
10:00 3.5ft 10s 11 13 mph 1021mb 51f 51f
9:00 3.5ft 10s 11 13 mph 1020.9mb 51f 51f
8:00 3.5ft 10s 9 13 mph 1020.3mb 51f 51f
7:00 3.5ft 10s 9 13 mph 1020mb 51f 51f
6:00 3.5ft 10s 9 13 mph 1019.5mb 51f 51f
5:00 3.5ft 10s 11 16 mph 1019.1mb 51f 50f
4:00 3.5ft 10s 9 13 mph 1018.9mb 51f 50f
3:00 4ft 10s 11 16 mph 1018.9mb 51f 49f
2:00 3.5ft 10s 9 13 mph 1018.8mb 51f 49f
1:00 3.5ft 10s 9 11 mph 1018.9mb 51f 48f
12:00 4ft 9s 9 11 mph 1018.8mb 51f 48f
sáb 05/27 11:00 3.5ft 10s 9 11 mph 1018.9mb 52f 49f
10:00 4.5ft 10s 7 9 mph 1019mb 52f 49f
9:00 4.5ft 8s 7 9 mph 1019mb 52f 49f
8:00 4.5ft 11s 7 11 mph 1019mb 52f 49f
7:00 4.5ft 11s 9 11 mph 1019.1mb 53f 49f
6:00 5ft 10s 7 9 mph 1019.2mb 53f 50f
5:00 5ft 11s 9 9 mph 1019.4mb 54f 52f
4:00 5ft 10s 4 7 mph 1019.6mb 54f 55f
3:00 5ft 11s 7 9 mph 1019.8mb 55f 55f
2:00 5ft 11s 4 4 mph 1019.8mb 55f 56f
1:00 5ft 11s 2 4 mph 1019.9mb 54f 56f
12:00 5ft 11s 2 4 mph 1019.7mb 53f 55f
11:00 5ft 8s 4 4 mph 1019.3mb 52f 53f
10:00 5.5ft 9s 4 4 mph 1019.1mb 51f 52f
9:00 6ft 10s 7 9 mph 1019mb 50f 51f
8:00 6ft 11s 7 9 mph 1018.7mb 50f 51f
7:00 6.5ft 11s 9 11 mph 1018.3mb 50f 51f
6:00 6.5ft 8s 13 18 mph 1017.7mb 50f 51f
5:00 6.5ft 11s 16 18 mph 1017.5mb 50f 51f
4:00 7ft 11s 16 20 mph 1017.4mb 50f 51f
3:00 7ft 12s 18 20 mph 1017.3mb 50f 51f
2:00 7.5ft 11s 20 22 mph 1017.1mb 50f 51f
12:00 8.5ft 10s 25 27 mph 1016.8mb 50f 51f
vie 05/26 11:00 8ft 10s 25 29 mph 1016.8mb 50f 50f
10:00 9ft 9s 25 31 mph 1016.7mb 50f 50f
9:00 10ft 11s 25 31 mph 1016.4mb 50f 50f
7:00 9ft 9s 25 29 mph 1016.5mb 50f 50f
6:00  -   -  27
mph
1016.4mb - 50f
5:00 9ft 10s 27 31 mph 1016.5mb 50f 50f
4:00 9ft 9s 27 31 mph 1016.3mb 50f 50f
3:00 9.5ft 9s 27 31 mph 1016.3mb 50f 50f
2:00 9ft 9s 25 31 mph 1016.3mb 50f 50f
1:00 8.5ft 10s 25 29 mph 1016.2mb 50f 50f
12:00 8.5ft 9s 25 31 mph 1016mb 50f 50f
11:00 8.5ft 10s 25 29 mph 1015.7mb 50f 50f
10:00 9ft 9s 25 29 mph 1015.4mb 50f 50f